sensor_id;sensor_type;location;lat;lon;timestamp;P1;durP1;ratioP1;P2;durP2;ratioP2
49444;SDS011;35323;43.080;-81.378;2023-05-07T00:01:00;2.08;;;1.10;;
49444;SDS011;35323;43.080;-81.378;2023-05-07T00:03:28;2.65;;;1.67;;
49444;SDS011;35323;43.080;-81.378;2023-05-07T00:05:56;3.90;;;1.65;;
49444;SDS011;35323;43.080;-81.378;2023-05-07T00:08:24;2.15;;;1.05;;
49444;SDS011;35323;43.080;-81.378;2023-05-07T00:10:52;4.63;;;1.67;;
49444;SDS011;35323;43.080;-81.378;2023-05-07T00:13:20;2.08;;;0.88;;
49444;SDS011;35323;43.080;-81.378;2023-05-07T00:15:47;1.73;;;1.60;;
49444;SDS011;35323;43.080;-81.378;2023-05-07T00:18:15;1.05;;;0.90;;
49444;SDS011;35323;43.080;-81.378;2023-05-07T00:20:43;0.50;;;0.50;;
49444;SDS011;35323;43.080;-81.378;2023-05-07T00:23:10;0.85;;;0.40;;
49444;SDS011;35323;43.080;-81.378;2023-05-07T00:25:38;1.85;;;0.63;;
49444;SDS011;35323;43.080;-81.378;2023-05-07T00:28:06;0.60;;;0.50;;
49444;SDS011;35323;43.080;-81.378;2023-05-07T00:30:34;0.93;;;0.70;;
49444;SDS011;35323;43.080;-81.378;2023-05-07T00:33:01;0.40;;;0.40;;
49444;SDS011;35323;43.080;-81.378;2023-05-07T00:35:29;0.40;;;0.40;;
49444;SDS011;35323;43.080;-81.378;2023-05-07T00:37:57;0.55;;;0.50;;
49444;SDS011;35323;43.080;-81.378;2023-05-07T00:40:25;1.60;;;0.40;;
49444;SDS011;35323;43.080;-81.378;2023-05-07T00:42:53;0.65;;;0.52;;
49444;SDS011;35323;43.080;-81.378;2023-05-07T00:45:26;0.38;;;0.38;;
49444;SDS011;35323;43.080;-81.378;2023-05-07T00:47:55;3.30;;;0.65;;
49444;SDS011;35323;43.080;-81.378;2023-05-07T00:50:23;0.43;;;0.40;;
49444;SDS011;35323;43.080;-81.378;2023-05-07T00:52:50;2.83;;;0.40;;
49444;SDS011;35323;43.080;-81.378;2023-05-07T00:55:18;2.20;;;0.90;;
49444;SDS011;35323;43.080;-81.378;2023-05-07T00:57:46;2.00;;;0.70;;
49444;SDS011;35323;43.080;-81.378;2023-05-07T01:00:13;0.93;;;0.60;;
49444;SDS011;35323;43.080;-81.378;2023-05-07T01:02:41;1.13;;;1.00;;
49444;SDS011;35323;43.080;-81.378;2023-05-07T01:05:11;3.50;;;1.38;;
49444;SDS011;35323;43.080;-81.378;2023-05-07T01:07:40;3.45;;;1.90;;
49444;SDS011;35323;43.080;-81.378;2023-05-07T01:10:08;3.55;;;1.42;;
49444;SDS011;35323;43.080;-81.378;2023-05-07T01:12:37;7.05;;;1.27;;
49444;SDS011;35323;43.080;-81.378;2023-05-07T01:15:05;2.47;;;0.70;;
49444;SDS011;35323;43.080;-81.378;2023-05-07T01:17:37;1.40;;;1.10;;
49444;SDS011;35323;43.080;-81.378;2023-05-07T01:20:05;3.28;;;1.40;;
49444;SDS011;35323;43.080;-81.378;2023-05-07T01:22:34;2.55;;;1.15;;
49444;SDS011;35323;43.080;-81.378;2023-05-07T01:25:04;3.38;;;1.80;;
49444;SDS011;35323;43.080;-81.378;2023-05-07T01:27:32;1.92;;;1.08;;
49444;SDS011;35323;43.080;-81.378;2023-05-07T01:30:01;0.70;;;0.70;;
49444;SDS011;35323;43.080;-81.378;2023-05-07T01:32:32;2.50;;;1.13;;
49444;SDS011;35323;43.080;-81.378;2023-05-07T01:35:01;2.80;;;2.20;;
49444;SDS011;35323;43.080;-81.378;2023-05-07T01:37:29;2.25;;;1.30;;
49444;SDS011;35323;43.080;-81.378;2023-05-07T01:39:57;1.83;;;1.52;;
49444;SDS011;35323;43.080;-81.378;2023-05-07T01:42:25;3.92;;;2.53;;
49444;SDS011;35323;43.080;-81.378;2023-05-07T01:44:52;3.47;;;2.53;;
49444;SDS011;35323;43.080;-81.378;2023-05-07T01:47:20;2.58;;;2.20;;
49444;SDS011;35323;43.080;-81.378;2023-05-07T01:49:48;3.13;;;2.40;;
49444;SDS011;35323;43.080;-81.378;2023-05-07T01:52:15;1.92;;;1.60;;
49444;SDS011;35323;43.080;-81.378;2023-05-07T01:54:43;5.35;;;2.50;;
49444;SDS011;35323;43.080;-81.378;2023-05-07T01:57:11;3.05;;;2.15;;
49444;SDS011;35323;43.080;-81.378;2023-05-07T01:59:39;2.55;;;2.22;;
49444;SDS011;35323;43.080;-81.378;2023-05-07T02:02:06;6.50;;;3.22;;
49444;SDS011;35323;43.080;-81.378;2023-05-07T02:04:34;6.18;;;2.40;;
49444;SDS011;35323;43.080;-81.378;2023-05-07T02:07:02;3.42;;;1.90;;
49444;SDS011;35323;43.080;-81.378;2023-05-07T02:09:29;3.10;;;1.77;;
49444;SDS011;35323;43.080;-81.378;2023-05-07T02:11:58;3.30;;;1.90;;
49444;SDS011;35323;43.080;-81.378;2023-05-07T02:14:25;2.88;;;2.05;;
49444;SDS011;35323;43.080;-81.378;2023-05-07T02:16:53;3.35;;;1.77;;
49444;SDS011;35323;43.080;-81.378;2023-05-07T02:19:21;3.70;;;2.30;;
49444;SDS011;35323;43.080;-81.378;2023-05-07T02:21:51;2.95;;;1.55;;
49444;SDS011;35323;43.080;-81.378;2023-05-07T02:24:37;5.50;;;2.03;;
49444;SDS011;35323;43.080;-81.378;2023-05-07T02:27:04;2.00;;;1.70;;
49444;SDS011;35323;43.080;-81.378;2023-05-07T02:29:34;3.80;;;2.20;;
49444;SDS011;35323;43.080;-81.378;2023-05-07T02:32:02;4.53;;;2.78;;
49444;SDS011;35323;43.080;-81.378;2023-05-07T02:34:30;3.40;;;3.05;;
49444;SDS011;35323;43.080;-81.378;2023-05-07T02:36:57;2.78;;;2.10;;
49444;SDS011;35323;43.080;-81.378;2023-05-07T02:39:25;2.38;;;1.90;;
49444;SDS011;35323;43.080;-81.378;2023-05-07T02:41:52;3.08;;;2.25;;
49444;SDS011;35323;43.080;-81.378;2023-05-07T02:44:20;2.67;;;1.83;;
49444;SDS011;35323;43.080;-81.378;2023-05-07T02:46:47;3.97;;;2.30;;
49444;SDS011;35323;43.080;-81.378;2023-05-07T02:49:17;5.03;;;2.13;;
49444;SDS011;35323;43.080;-81.378;2023-05-07T02:51:45;2.80;;;1.90;;
49444;SDS011;35323;43.080;-81.378;2023-05-07T02:54:13;1.48;;;1.30;;
49444;SDS011;35323;43.080;-81.378;2023-05-07T02:56:41;2.40;;;1.70;;
49444;SDS011;35323;43.080;-81.378;2023-05-07T02:59:08;1.70;;;1.60;;
49444;SDS011;35323;43.080;-81.378;2023-05-07T03:01:36;2.13;;;1.60;;
49444;SDS011;35323;43.080;-81.378;2023-05-07T03:04:04;2.03;;;1.48;;
49444;SDS011;35323;43.080;-81.378;2023-05-07T03:06:31;4.53;;;2.35;;
49444;SDS011;35323;43.080;-81.378;2023-05-07T03:08:59;2.63;;;2.40;;
49444;SDS011;35323;43.080;-81.378;2023-05-07T03:11:27;1.92;;;1.52;;
49444;SDS011;35323;43.080;-81.378;2023-05-07T03:13:54;1.50;;;1.40;;
49444;SDS011;35323;43.080;-81.378;2023-05-07T03:16:22;1.38;;;1.10;;
49444;SDS011;35323;43.080;-81.378;2023-05-07T03:18:50;2.28;;;1.58;;
49444;SDS011;35323;43.080;-81.378;2023-05-07T03:21:18;1.30;;;1.20;;
49444;SDS011;35323;43.080;-81.378;2023-05-07T03:23:45;1.58;;;1.48;;
49444;SDS011;35323;43.080;-81.378;2023-05-07T03:26:13;1.67;;;1.38;;
49444;SDS011;35323;43.080;-81.378;2023-05-07T03:28:40;2.10;;;1.30;;
49444;SDS011;35323;43.080;-81.378;2023-05-07T03:31:08;1.75;;;1.35;;
49444;SDS011;35323;43.080;-81.378;2023-05-07T03:33:38;1.40;;;1.30;;
49444;SDS011;35323;43.080;-81.378;2023-05-07T03:36:06;1.40;;;1.30;;
49444;SDS011;35323;43.080;-81.378;2023-05-07T03:38:34;1.95;;;1.55;;
49444;SDS011;35323;43.080;-81.378;2023-05-07T03:41:01;2.50;;;1.27;;
49444;SDS011;35323;43.080;-81.378;2023-05-07T03:43:29;2.30;;;1.52;;
49444;SDS011;35323;43.080;-81.378;2023-05-07T03:45:56;2.25;;;2.05;;
49444;SDS011;35323;43.080;-81.378;2023-05-07T03:48:24;2.65;;;1.88;;
49444;SDS011;35323;43.080;-81.378;2023-05-07T03:50:52;3.53;;;3.22;;
49444;SDS011;35323;43.080;-81.378;2023-05-07T03:53:21;2.85;;;2.65;;
49444;SDS011;35323;43.080;-81.378;2023-05-07T03:55:48;2.63;;;2.08;;
49444;SDS011;35323;43.080;-81.378;2023-05-07T03:58:20;2.63;;;2.42;;
49444;SDS011;35323;43.080;-81.378;2023-05-07T04:00:47;3.83;;;1.92;;
49444;SDS011;35323;43.080;-81.378;2023-05-07T04:03:15;8.75;;;2.40;;
49444;SDS011;35323;43.080;-81.378;2023-05-07T04:05:43;2.13;;;1.55;;
49444;SDS011;35323;43.080;-81.378;2023-05-07T04:08:10;2.78;;;1.92;;
49444;SDS011;35323;43.080;-81.378;2023-05-07T04:10:39;3.08;;;2.53;;
49444;SDS011;35323;43.080;-81.378;2023-05-07T04:13:06;4.15;;;2.38;;
49444;SDS011;35323;43.080;-81.378;2023-05-07T04:15:35;12.50;;;5.13;;
49444;SDS011;35323;43.080;-81.378;2023-05-07T04:18:02;4.82;;;2.78;;
49444;SDS011;35323;43.080;-81.378;2023-05-07T04:20:30;3.10;;;1.73;;
49444;SDS011;35323;43.080;-81.378;2023-05-07T04:22:58;2.55;;;1.48;;
49444;SDS011;35323;43.080;-81.378;2023-05-07T04:25:25;1.80;;;1.50;;
49444;SDS011;35323;43.080;-81.378;2023-05-07T04:27:53;2.10;;;1.90;;
49444;SDS011;35323;43.080;-81.378;2023-05-07T04:30:23;2.15;;;1.38;;
49444;SDS011;35323;43.080;-81.378;2023-05-07T04:32:51;3.55;;;1.45;;
49444;SDS011;35323;43.080;-81.378;2023-05-07T04:35:19;2.33;;;2.10;;
49444;SDS011;35323;43.080;-81.378;2023-05-07T04:37:47;3.40;;;1.48;;
49444;SDS011;35323;43.080;-81.378;2023-05-07T04:40:14;1.42;;;1.25;;
49444;SDS011;35323;43.080;-81.378;2023-05-07T04:42:42;2.67;;;2.38;;
49444;SDS011;35323;43.080;-81.378;2023-05-07T04:45:11;1.88;;;1.50;;
49444;SDS011;35323;43.080;-81.378;2023-05-07T04:47:39;1.75;;;1.48;;
49444;SDS011;35323;43.080;-81.378;2023-05-07T04:50:07;1.77;;;1.48;;
49444;SDS011;35323;43.080;-81.378;2023-05-07T04:52:35;1.40;;;1.30;;
49444;SDS011;35323;43.080;-81.378;2023-05-07T04:55:03;2.50;;;1.90;;
49444;SDS011;35323;43.080;-81.378;2023-05-07T04:57:31;3.40;;;1.90;;
49444;SDS011;35323;43.080;-81.378;2023-05-07T04:59:59;2.92;;;1.65;;
49444;SDS011;35323;43.080;-81.378;2023-05-07T05:02:26;1.70;;;1.60;;
49444;SDS011;35323;43.080;-81.378;2023-05-07T05:04:56;3.42;;;2.03;;
49444;SDS011;35323;43.080;-81.378;2023-05-07T05:07:23;3.70;;;1.55;;
49444;SDS011;35323;43.080;-81.378;2023-05-07T05:09:51;2.75;;;2.53;;
49444;SDS011;35323;43.080;-81.378;2023-05-07T05:12:18;3.05;;;1.83;;
49444;SDS011;35323;43.080;-81.378;2023-05-07T05:14:46;1.92;;;1.83;;
49444;SDS011;35323;43.080;-81.378;2023-05-07T05:17:15;2.35;;;1.80;;
49444;SDS011;35323;43.080;-81.378;2023-05-07T05:19:42;2.00;;;1.80;;
49444;SDS011;35323;43.080;-81.378;2023-05-07T05:22:10;2.25;;;2.05;;
49444;SDS011;35323;43.080;-81.378;2023-05-07T05:24:38;6.82;;;1.90;;
49444;SDS011;35323;43.080;-81.378;2023-05-07T05:27:05;1.95;;;1.35;;
49444;SDS011;35323;43.080;-81.378;2023-05-07T05:29:33;2.40;;;1.65;;
49444;SDS011;35323;43.080;-81.378;2023-05-07T05:32:01;2.80;;;2.42;;
49444;SDS011;35323;43.080;-81.378;2023-05-07T05:34:28;3.13;;;2.22;;
49444;SDS011;35323;43.080;-81.378;2023-05-07T05:36:56;3.10;;;1.85;;
49444;SDS011;35323;43.080;-81.378;2023-05-07T05:39:26;2.97;;;2.13;;
49444;SDS011;35323;43.080;-81.378;2023-05-07T05:41:53;2.40;;;1.73;;
49444;SDS011;35323;43.080;-81.378;2023-05-07T05:44:22;2.72;;;2.10;;
49444;SDS011;35323;43.080;-81.378;2023-05-07T05:46:49;4.07;;;3.17;;
49444;SDS011;35323;43.080;-81.378;2023-05-07T05:49:17;2.75;;;2.00;;
49444;SDS011;35323;43.080;-81.378;2023-05-07T05:51:44;2.20;;;1.80;;
49444;SDS011;35323;43.080;-81.378;2023-05-07T05:54:12;4.15;;;2.78;;
49444;SDS011;35323;43.080;-81.378;2023-05-07T05:56:39;3.88;;;1.90;;
49444;SDS011;35323;43.080;-81.378;2023-05-07T05:59:07;2.45;;;2.25;;
49444;SDS011;35323;43.080;-81.378;2023-05-07T06:01:34;2.97;;;2.67;;
49444;SDS011;35323;43.080;-81.378;2023-05-07T06:04:02;2.08;;;1.85;;
49444;SDS011;35323;43.080;-81.378;2023-05-07T06:06:29;2.53;;;2.20;;
49444;SDS011;35323;43.080;-81.378;2023-05-07T06:08:58;3.08;;;2.15;;
49444;SDS011;35323;43.080;-81.378;2023-05-07T06:11:26;2.10;;;1.90;;
49444;SDS011;35323;43.080;-81.378;2023-05-07T06:13:53;2.55;;;2.20;;
49444;SDS011;35323;43.080;-81.378;2023-05-07T06:16:21;2.05;;;1.85;;
49444;SDS011;35323;43.080;-81.378;2023-05-07T06:18:48;2.60;;;1.95;;
49444;SDS011;35323;43.080;-81.378;2023-05-07T06:21:16;2.55;;;1.70;;
49444;SDS011;35323;43.080;-81.378;2023-05-07T06:23:44;3.00;;;2.30;;
49444;SDS011;35323;43.080;-81.378;2023-05-07T06:26:13;2.42;;;2.22;;
49444;SDS011;35323;43.080;-81.378;2023-05-07T06:28:41;3.83;;;2.20;;
49444;SDS011;35323;43.080;-81.378;2023-05-07T06:31:12;3.25;;;2.72;;
49444;SDS011;35323;43.080;-81.378;2023-05-07T06:33:40;3.35;;;2.38;;
49444;SDS011;35323;43.080;-81.378;2023-05-07T06:36:08;2.05;;;1.67;;
49444;SDS011;35323;43.080;-81.378;2023-05-07T06:38:35;2.45;;;2.13;;
49444;SDS011;35323;43.080;-81.378;2023-05-07T06:41:03;3.33;;;2.72;;
49444;SDS011;35323;43.080;-81.378;2023-05-07T06:43:30;2.35;;;1.77;;
49444;SDS011;35323;43.080;-81.378;2023-05-07T06:45:59;2.33;;;1.70;;
49444;SDS011;35323;43.080;-81.378;2023-05-07T06:48:27;2.97;;;2.20;;
49444;SDS011;35323;43.080;-81.378;2023-05-07T06:50:56;4.75;;;3.55;;
49444;SDS011;35323;43.080;-81.378;2023-05-07T06:53:25;3.30;;;2.22;;
49444;SDS011;35323;43.080;-81.378;2023-05-07T06:55:58;3.00;;;2.25;;
49444;SDS011;35323;43.080;-81.378;2023-05-07T06:58:33;2.85;;;2.03;;
49444;SDS011;35323;43.080;-81.378;2023-05-07T07:01:02;4.00;;;1.92;;
49444;SDS011;35323;43.080;-81.378;2023-05-07T07:03:33;2.78;;;2.20;;
49444;SDS011;35323;43.080;-81.378;2023-05-07T07:06:04;2.55;;;1.98;;
49444;SDS011;35323;43.080;-81.378;2023-05-07T07:08:35;2.45;;;2.08;;
49444;SDS011;35323;43.080;-81.378;2023-05-07T07:11:06;1.52;;;1.42;;
49444;SDS011;35323;43.080;-81.378;2023-05-07T07:13:34;2.53;;;1.98;;
49444;SDS011;35323;43.080;-81.378;2023-05-07T07:16:02;2.65;;;1.55;;
49444;SDS011;35323;43.080;-81.378;2023-05-07T07:18:31;3.83;;;3.35;;
49444;SDS011;35323;43.080;-81.378;2023-05-07T07:21:02;1.70;;;1.60;;
49444;SDS011;35323;43.080;-81.378;2023-05-07T07:23:30;3.20;;;1.73;;
49444;SDS011;35323;43.080;-81.378;2023-05-07T07:25:58;3.03;;;2.13;;
49444;SDS011;35323;43.080;-81.378;2023-05-07T07:28:25;1.77;;;1.52;;
49444;SDS011;35323;43.080;-81.378;2023-05-07T07:30:53;1.98;;;1.75;;
49444;SDS011;35323;43.080;-81.378;2023-05-07T07:33:21;1.98;;;1.35;;
49444;SDS011;35323;43.080;-81.378;2023-05-07T07:35:48;3.28;;;2.22;;
49444;SDS011;35323;43.080;-81.378;2023-05-07T07:38:16;4.07;;;1.33;;
49444;SDS011;35323;43.080;-81.378;2023-05-07T07:40:44;1.40;;;1.27;;
49444;SDS011;35323;43.080;-81.378;2023-05-07T07:43:13;1.55;;;1.40;;
49444;SDS011;35323;43.080;-81.378;2023-05-07T07:45:40;1.40;;;1.30;;
49444;SDS011;35323;43.080;-81.378;2023-05-07T07:48:08;1.15;;;0.93;;
49444;SDS011;35323;43.080;-81.378;2023-05-07T07:50:35;1.42;;;1.05;;
49444;SDS011;35323;43.080;-81.378;2023-05-07T07:53:11;1.25;;;1.15;;
49444;SDS011;35323;43.080;-81.378;2023-05-07T07:55:39;1.67;;;1.23;;
49444;SDS011;35323;43.080;-81.378;2023-05-07T07:58:07;1.50;;;1.40;;
49444;SDS011;35323;43.080;-81.378;2023-05-07T08:00:35;3.83;;;2.53;;
49444;SDS011;35323;43.080;-81.378;2023-05-07T08:03:02;1.13;;;1.05;;
49444;SDS011;35323;43.080;-81.378;2023-05-07T08:05:30;1.50;;;1.20;;
49444;SDS011;35323;43.080;-81.378;2023-05-07T08:07:58;1.20;;;0.90;;
49444;SDS011;35323;43.080;-81.378;2023-05-07T08:10:25;2.08;;;1.35;;
49444;SDS011;35323;43.080;-81.378;2023-05-07T08:12:53;1.10;;;1.00;;
49444;SDS011;35323;43.080;-81.378;2023-05-07T08:15:21;1.48;;;1.30;;
49444;SDS011;35323;43.080;-81.378;2023-05-07T08:17:48;1.33;;;1.05;;
49444;SDS011;35323;43.080;-81.378;2023-05-07T08:20:16;1.90;;;1.00;;
49444;SDS011;35323;43.080;-81.378;2023-05-07T08:22:43;1.63;;;0.93;;
49444;SDS011;35323;43.080;-81.378;2023-05-07T08:25:11;1.38;;;1.13;;
49444;SDS011;35323;43.080;-81.378;2023-05-07T08:27:39;2.25;;;1.00;;
49444;SDS011;35323;43.080;-81.378;2023-05-07T08:30:09;4.07;;;1.08;;
49444;SDS011;35323;43.080;-81.378;2023-05-07T08:32:37;1.27;;;1.17;;
49444;SDS011;35323;43.080;-81.378;2023-05-07T08:35:05;1.83;;;1.20;;
49444;SDS011;35323;43.080;-81.378;2023-05-07T08:37:32;2.63;;;1.45;;
49444;SDS011;35323;43.080;-81.378;2023-05-07T08:40:00;2.20;;;1.40;;
49444;SDS011;35323;43.080;-81.378;2023-05-07T08:42:27;3.50;;;0.93;;
49444;SDS011;35323;43.080;-81.378;2023-05-07T08:44:56;1.75;;;1.10;;
49444;SDS011;35323;43.080;-81.378;2023-05-07T08:47:26;4.60;;;1.23;;
49444;SDS011;35323;43.080;-81.378;2023-05-07T08:49:59;2.03;;;1.08;;
49444;SDS011;35323;43.080;-81.378;2023-05-07T08:52:27;1.25;;;0.80;;
49444;SDS011;35323;43.080;-81.378;2023-05-07T08:54:56;1.15;;;1.02;;
49444;SDS011;35323;43.080;-81.378;2023-05-07T08:57:23;2.92;;;1.00;;
49444;SDS011;35323;43.080;-81.378;2023-05-07T08:59:52;2.30;;;1.23;;
49444;SDS011;35323;43.080;-81.378;2023-05-07T09:02:19;1.42;;;1.27;;
49444;SDS011;35323;43.080;-81.378;2023-05-07T09:04:47;1.15;;;1.00;;
49444;SDS011;35323;43.080;-81.378;2023-05-07T09:07:15;0.95;;;0.88;;
49444;SDS011;35323;43.080;-81.378;2023-05-07T09:09:44;1.60;;;1.50;;
49444;SDS011;35323;43.080;-81.378;2023-05-07T09:12:12;1.10;;;1.00;;
49444;SDS011;35323;43.080;-81.378;2023-05-07T09:14:40;0.88;;;0.77;;
49444;SDS011;35323;43.080;-81.378;2023-05-07T09:17:07;2.78;;;1.52;;
49444;SDS011;35323;43.080;-81.378;2023-05-07T09:19:35;1.10;;;0.90;;
49444;SDS011;35323;43.080;-81.378;2023-05-07T09:22:04;1.13;;;0.85;;
49444;SDS011;35323;43.080;-81.378;2023-05-07T09:24:32;1.15;;;1.08;;
49444;SDS011;35323;43.080;-81.378;2023-05-07T09:27:04;5.35;;;1.02;;
49444;SDS011;35323;43.080;-81.378;2023-05-07T09:29:32;4.25;;;0.95;;
49444;SDS011;35323;43.080;-81.378;2023-05-07T09:32:03;1.30;;;1.20;;
49444;SDS011;35323;43.080;-81.378;2023-05-07T09:34:31;0.85;;;0.70;;
49444;SDS011;35323;43.080;-81.378;2023-05-07T09:37:02;1.73;;;1.63;;
49444;SDS011;35323;43.080;-81.378;2023-05-07T09:39:42;1.95;;;1.85;;
49444;SDS011;35323;43.080;-81.378;2023-05-07T09:42:10;1.35;;;1.25;;
49444;SDS011;35323;43.080;-81.378;2023-05-07T09:44:47;1.30;;;1.05;;
49444;SDS011;35323;43.080;-81.378;2023-05-07T09:47:16;1.88;;;0.85;;
49444;SDS011;35323;43.080;-81.378;2023-05-07T09:49:46;0.75;;;0.75;;
49444;SDS011;35323;43.080;-81.378;2023-05-07T09:52:14;1.60;;;1.17;;
49444;SDS011;35323;43.080;-81.378;2023-05-07T09:54:43;1.33;;;0.85;;
49444;SDS011;35323;43.080;-81.378;2023-05-07T09:57:12;0.93;;;0.85;;
49444;SDS011;35323;43.080;-81.378;2023-05-07T09:59:41;1.00;;;0.73;;
49444;SDS011;35323;43.080;-81.378;2023-05-07T10:02:09;1.45;;;0.90;;
49444;SDS011;35323;43.080;-81.378;2023-05-07T10:04:37;1.13;;;0.80;;
49444;SDS011;35323;43.080;-81.378;2023-05-07T10:07:05;0.70;;;0.70;;
49444;SDS011;35323;43.080;-81.378;2023-05-07T10:09:34;3.00;;;1.00;;
49444;SDS011;35323;43.080;-81.378;2023-05-07T10:12:05;1.85;;;0.77;;
49444;SDS011;35323;43.080;-81.378;2023-05-07T10:14:33;0.98;;;0.85;;
49444;SDS011;35323;43.080;-81.378;2023-05-07T10:17:01;0.90;;;0.68;;
49444;SDS011;35323;43.080;-81.378;2023-05-07T10:19:29;0.80;;;0.80;;
49444;SDS011;35323;43.080;-81.378;2023-05-07T10:22:02;0.60;;;0.60;;
49444;SDS011;35323;43.080;-81.378;2023-05-07T10:24:32;1.90;;;0.50;;
49444;SDS011;35323;43.080;-81.378;2023-05-07T10:27:01;0.80;;;0.80;;
49444;SDS011;35323;43.080;-81.378;2023-05-07T10:29:32;0.63;;;0.63;;
49444;SDS011;35323;43.080;-81.378;2023-05-07T10:34:34;0.65;;;0.65;;
49444;SDS011;35323;43.080;-81.378;2023-05-07T10:37:02;0.85;;;0.85;;
49444;SDS011;35323;43.080;-81.378;2023-05-07T10:39:30;1.10;;;0.90;;
49444;SDS011;35323;43.080;-81.378;2023-05-07T10:42:07;2.10;;;0.90;;
49444;SDS011;35323;43.080;-81.378;2023-05-07T10:44:37;1.38;;;1.00;;
49444;SDS011;35323;43.080;-81.378;2023-05-07T10:49:32;0.82;;;0.80;;
49444;SDS011;35323;43.080;-81.378;2023-05-07T10:52:16;1.38;;;1.33;;
49444;SDS011;35323;43.080;-81.378;2023-05-07T10:54:44;4.45;;;0.90;;
49444;SDS011;35323;43.080;-81.378;2023-05-07T10:59:58;1.42;;;1.02;;
49444;SDS011;35323;43.080;-81.378;2023-05-07T11:05:21;1.17;;;1.02;;
49444;SDS011;35323;43.080;-81.378;2023-05-07T11:07:55;0.60;;;0.60;;
49444;SDS011;35323;43.080;-81.378;2023-05-07T11:10:23;3.63;;;0.77;;
49444;SDS011;35323;43.080;-81.378;2023-05-07T11:13:10;2.47;;;0.98;;
49444;SDS011;35323;43.080;-81.378;2023-05-07T11:15:39;2.40;;;0.85;;
49444;SDS011;35323;43.080;-81.378;2023-05-07T11:18:06;1.10;;;1.00;;
49444;SDS011;35323;43.080;-81.378;2023-05-07T11:20:51;1.35;;;1.25;;
49444;SDS011;35323;43.080;-81.378;2023-05-07T11:28:30;1.00;;;0.80;;
49444;SDS011;35323;43.080;-81.378;2023-05-07T11:30:58;1.45;;;1.20;;
49444;SDS011;35323;43.080;-81.378;2023-05-07T11:33:25;2.97;;;1.80;;
49444;SDS011;35323;43.080;-81.378;2023-05-07T11:35:53;1.40;;;0.93;;
49444;SDS011;35323;43.080;-81.378;2023-05-07T11:38:22;1.35;;;1.10;;
49444;SDS011;35323;43.080;-81.378;2023-05-07T11:43:18;1.52;;;0.95;;
49444;SDS011;35323;43.080;-81.378;2023-05-07T11:45:45;0.93;;;0.93;;
49444;SDS011;35323;43.080;-81.378;2023-05-07T11:48:13;2.67;;;1.33;;
49444;SDS011;35323;43.080;-81.378;2023-05-07T11:50:54;3.25;;;1.20;;
49444;SDS011;35323;43.080;-81.378;2023-05-07T11:53:24;2.60;;;1.77;;
49444;SDS011;35323;43.080;-81.378;2023-05-07T11:55:54;1.98;;;0.98;;
49444;SDS011;35323;43.080;-81.378;2023-05-07T11:58:26;1.48;;;1.38;;
49444;SDS011;35323;43.080;-81.378;2023-05-07T12:00:53;1.02;;;1.00;;
49444;SDS011;35323;43.080;-81.378;2023-05-07T12:03:21;2.97;;;1.08;;
49444;SDS011;35323;43.080;-81.378;2023-05-07T12:05:49;0.98;;;0.80;;
49444;SDS011;35323;43.080;-81.378;2023-05-07T12:08:17;1.27;;;0.95;;
49444;SDS011;35323;43.080;-81.378;2023-05-07T12:10:46;1.10;;;1.00;;
49444;SDS011;35323;43.080;-81.378;2023-05-07T12:13:18;1.52;;;0.95;;
49444;SDS011;35323;43.080;-81.378;2023-05-07T12:15:50;1.10;;;0.80;;
49444;SDS011;35323;43.080;-81.378;2023-05-07T12:18:18;1.00;;;0.90;;
49444;SDS011;35323;43.080;-81.378;2023-05-07T12:20:46;1.70;;;1.60;;
49444;SDS011;35323;43.080;-81.378;2023-05-07T12:23:14;1.33;;;1.23;;
49444;SDS011;35323;43.080;-81.378;2023-05-07T12:25:43;1.95;;;1.75;;
49444;SDS011;35323;43.080;-81.378;2023-05-07T12:28:14;2.45;;;0.90;;
49444;SDS011;35323;43.080;-81.378;2023-05-07T12:30:48;1.92;;;0.98;;
49444;SDS011;35323;43.080;-81.378;2023-05-07T12:33:16;1.20;;;1.10;;
49444;SDS011;35323;43.080;-81.378;2023-05-07T12:35:44;1.45;;;1.30;;
49444;SDS011;35323;43.080;-81.378;2023-05-07T12:38:13;0.80;;;0.80;;
49444;SDS011;35323;43.080;-81.378;2023-05-07T12:40:41;3.38;;;2.33;;
49444;SDS011;35323;43.080;-81.378;2023-05-07T12:43:23;4.15;;;1.27;;
49444;SDS011;35323;43.080;-81.378;2023-05-07T12:45:54;4.80;;;1.23;;
49444;SDS011;35323;43.080;-81.378;2023-05-07T12:48:22;2.78;;;1.17;;
49444;SDS011;35323;43.080;-81.378;2023-05-07T12:50:50;1.35;;;1.27;;
49444;SDS011;35323;43.080;-81.378;2023-05-07T12:53:19;2.33;;;0.90;;
49444;SDS011;35323;43.080;-81.378;2023-05-07T12:55:48;1.52;;;1.42;;
49444;SDS011;35323;43.080;-81.378;2023-05-07T12:58:26;1.40;;;0.93;;
49444;SDS011;35323;43.080;-81.378;2023-05-07T13:00:55;1.30;;;1.13;;
49444;SDS011;35323;43.080;-81.378;2023-05-07T13:03:27;1.70;;;0.97;;
49444;SDS011;35323;43.080;-81.378;2023-05-07T13:05:59;3.40;;;1.17;;
49444;SDS011;35323;43.080;-81.378;2023-05-07T13:08:28;4.78;;;1.25;;
49444;SDS011;35323;43.080;-81.378;2023-05-07T13:10:59;3.47;;;1.55;;
49444;SDS011;35323;43.080;-81.378;2023-05-07T13:13:31;1.70;;;1.00;;
49444;SDS011;35323;43.080;-81.378;2023-05-07T13:15:59;0.70;;;0.70;;
49444;SDS011;35323;43.080;-81.378;2023-05-07T13:18:28;1.33;;;1.23;;
49444;SDS011;35323;43.080;-81.378;2023-05-07T13:20:56;1.27;;;0.90;;
49444;SDS011;35323;43.080;-81.378;2023-05-07T13:23:24;1.45;;;0.93;;
49444;SDS011;35323;43.080;-81.378;2023-05-07T13:25:52;1.58;;;1.02;;
49444;SDS011;35323;43.080;-81.378;2023-05-07T13:28:21;1.40;;;1.30;;
49444;SDS011;35323;43.080;-81.378;2023-05-07T13:30:48;1.00;;;0.88;;
49444;SDS011;35323;43.080;-81.378;2023-05-07T13:33:16;4.00;;;1.33;;
49444;SDS011;35323;43.080;-81.378;2023-05-07T13:35:44;1.20;;;1.10;;
49444;SDS011;35323;43.080;-81.378;2023-05-07T13:38:12;1.15;;;0.90;;
49444;SDS011;35323;43.080;-81.378;2023-05-07T13:40:40;3.67;;;1.67;;
49444;SDS011;35323;43.080;-81.378;2023-05-07T13:43:07;1.65;;;1.33;;
49444;SDS011;35323;43.080;-81.378;2023-05-07T13:45:35;1.58;;;1.20;;
49444;SDS011;35323;43.080;-81.378;2023-05-07T13:48:02;5.32;;;2.47;;
49444;SDS011;35323;43.080;-81.378;2023-05-07T13:50:30;4.05;;;1.60;;
49444;SDS011;35323;43.080;-81.378;2023-05-07T13:52:57;1.38;;;1.02;;
49444;SDS011;35323;43.080;-81.378;2023-05-07T13:55:25;4.15;;;1.08;;
49444;SDS011;35323;43.080;-81.378;2023-05-07T13:57:56;1.17;;;1.08;;
49444;SDS011;35323;43.080;-81.378;2023-05-07T14:00:24;2.47;;;1.27;;
49444;SDS011;35323;43.080;-81.378;2023-05-07T14:02:54;2.05;;;1.25;;
49444;SDS011;35323;43.080;-81.378;2023-05-07T14:05:22;1.85;;;1.17;;
49444;SDS011;35323;43.080;-81.378;2023-05-07T14:07:55;3.00;;;1.27;;
49444;SDS011;35323;43.080;-81.378;2023-05-07T14:10:23;1.63;;;1.00;;
49444;SDS011;35323;43.080;-81.378;2023-05-07T14:12:51;3.28;;;1.70;;
49444;SDS011;35323;43.080;-81.378;2023-05-07T14:15:20;4.18;;;1.45;;
49444;SDS011;35323;43.080;-81.378;2023-05-07T14:17:47;1.35;;;1.00;;
49444;SDS011;35323;43.080;-81.378;2023-05-07T14:20:15;1.90;;;1.52;;
49444;SDS011;35323;43.080;-81.378;2023-05-07T14:22:42;3.63;;;2.13;;
49444;SDS011;35323;43.080;-81.378;2023-05-07T14:25:10;1.75;;;1.55;;
49444;SDS011;35323;43.080;-81.378;2023-05-07T14:27:37;2.42;;;1.20;;
49444;SDS011;35323;43.080;-81.378;2023-05-07T14:30:05;2.00;;;1.27;;
49444;SDS011;35323;43.080;-81.378;2023-05-07T14:32:33;2.17;;;1.60;;
49444;SDS011;35323;43.080;-81.378;2023-05-07T14:35:02;2.55;;;1.23;;
49444;SDS011;35323;43.080;-81.378;2023-05-07T14:37:29;1.35;;;1.23;;
49444;SDS011;35323;43.080;-81.378;2023-05-07T14:39:57;1.13;;;1.02;;
49444;SDS011;35323;43.080;-81.378;2023-05-07T14:42:24;1.88;;;1.20;;
49444;SDS011;35323;43.080;-81.378;2023-05-07T14:44:52;1.38;;;1.25;;
49444;SDS011;35323;43.080;-81.378;2023-05-07T14:47:20;1.33;;;1.23;;